sensor_id;sensor_type;location;lat;lon;timestamp;P1;durP1;ratioP1;P2;durP2;ratioP2
28483;SDS011;15704;48.834;8.736;2023-06-04T00:02:18;6.63;;;3.45;;
28483;SDS011;15704;48.834;8.736;2023-06-04T00:04:44;13.75;;;4.25;;
28483;SDS011;15704;48.834;8.736;2023-06-04T00:07:11;7.05;;;3.28;;
28483;SDS011;15704;48.834;8.736;2023-06-04T00:09:38;10.23;;;3.70;;
28483;SDS011;15704;48.834;8.736;2023-06-04T00:12:05;10.88;;;3.83;;
28483;SDS011;15704;48.834;8.736;2023-06-04T00:14:32;9.00;;;3.60;;
28483;SDS011;15704;48.834;8.736;2023-06-04T00:16:59;7.55;;;3.85;;
28483;SDS011;15704;48.834;8.736;2023-06-04T00:19:26;6.38;;;4.13;;
28483;SDS011;15704;48.834;8.736;2023-06-04T00:21:53;6.22;;;3.58;;
28483;SDS011;15704;48.834;8.736;2023-06-04T00:24:19;7.15;;;3.60;;
28483;SDS011;15704;48.834;8.736;2023-06-04T00:26:46;11.45;;;4.55;;
28483;SDS011;15704;48.834;8.736;2023-06-04T00:29:13;7.20;;;3.92;;
28483;SDS011;15704;48.834;8.736;2023-06-04T00:31:40;10.82;;;3.90;;
28483;SDS011;15704;48.834;8.736;2023-06-04T00:34:07;6.13;;;3.50;;
28483;SDS011;15704;48.834;8.736;2023-06-04T00:36:34;9.73;;;3.72;;
28483;SDS011;15704;48.834;8.736;2023-06-04T00:39:01;12.45;;;3.78;;
28483;SDS011;15704;48.834;8.736;2023-06-04T00:41:27;7.85;;;3.97;;
28483;SDS011;15704;48.834;8.736;2023-06-04T00:43:54;8.15;;;3.75;;
28483;SDS011;15704;48.834;8.736;2023-06-04T00:46:24;11.80;;;3.80;;
28483;SDS011;15704;48.834;8.736;2023-06-04T00:48:53;9.15;;;3.70;;
28483;SDS011;15704;48.834;8.736;2023-06-04T00:51:21;9.82;;;3.78;;
28483;SDS011;15704;48.834;8.736;2023-06-04T00:53:49;7.93;;;3.80;;
28483;SDS011;15704;48.834;8.736;2023-06-04T00:56:16;8.10;;;4.20;;
28483;SDS011;15704;48.834;8.736;2023-06-04T00:58:43;8.23;;;3.58;;
28483;SDS011;15704;48.834;8.736;2023-06-04T01:01:16;10.50;;;3.90;;
28483;SDS011;15704;48.834;8.736;2023-06-04T01:03:46;6.38;;;3.95;;
28483;SDS011;15704;48.834;8.736;2023-06-04T01:06:38;8.45;;;3.97;;
28483;SDS011;15704;48.834;8.736;2023-06-04T01:09:07;6.03;;;3.22;;
28483;SDS011;15704;48.834;8.736;2023-06-04T01:11:35;14.90;;;3.78;;
28483;SDS011;15704;48.834;8.736;2023-06-04T01:14:03;10.70;;;4.13;;
28483;SDS011;15704;48.834;8.736;2023-06-04T01:22:29;7.93;;;4.00;;
28483;SDS011;15704;48.834;8.736;2023-06-04T01:24:59;8.02;;;3.80;;
28483;SDS011;15704;48.834;8.736;2023-06-04T01:27:30;12.40;;;3.90;;
28483;SDS011;15704;48.834;8.736;2023-06-04T01:29:58;8.27;;;3.63;;
28483;SDS011;15704;48.834;8.736;2023-06-04T01:32:26;7.18;;;3.55;;
28483;SDS011;15704;48.834;8.736;2023-06-04T01:34:54;9.75;;;3.47;;
28483;SDS011;15704;48.834;8.736;2023-06-04T01:37:21;7.53;;;3.10;;
28483;SDS011;15704;48.834;8.736;2023-06-04T01:39:47;6.53;;;3.15;;
28483;SDS011;15704;48.834;8.736;2023-06-04T01:42:14;6.55;;;3.17;;
28483;SDS011;15704;48.834;8.736;2023-06-04T01:44:41;5.97;;;3.50;;
28483;SDS011;15704;48.834;8.736;2023-06-04T01:47:08;4.93;;;3.20;;
28483;SDS011;15704;48.834;8.736;2023-06-04T01:49:35;6.05;;;3.30;;
28483;SDS011;15704;48.834;8.736;2023-06-04T01:52:04;8.27;;;3.83;;
28483;SDS011;15704;48.834;8.736;2023-06-04T01:54:32;12.48;;;3.80;;
28483;SDS011;15704;48.834;8.736;2023-06-04T01:57:00;6.28;;;3.75;;
28483;SDS011;15704;48.834;8.736;2023-06-04T01:59:26;6.32;;;3.38;;
28483;SDS011;15704;48.834;8.736;2023-06-04T02:01:53;9.95;;;3.67;;
28483;SDS011;15704;48.834;8.736;2023-06-04T02:04:20;7.15;;;3.72;;
28483;SDS011;15704;48.834;8.736;2023-06-04T02:06:47;9.05;;;3.92;;
28483;SDS011;15704;48.834;8.736;2023-06-04T02:09:15;8.95;;;3.58;;
28483;SDS011;15704;48.834;8.736;2023-06-04T02:11:42;7.82;;;3.70;;
28483;SDS011;15704;48.834;8.736;2023-06-04T02:14:09;8.95;;;3.80;;
28483;SDS011;15704;48.834;8.736;2023-06-04T02:16:36;6.53;;;3.67;;
28483;SDS011;15704;48.834;8.736;2023-06-04T02:19:04;6.32;;;3.20;;
28483;SDS011;15704;48.834;8.736;2023-06-04T02:21:31;8.57;;;3.30;;
28483;SDS011;15704;48.834;8.736;2023-06-04T02:23:57;6.45;;;3.72;;
28483;SDS011;15704;48.834;8.736;2023-06-04T02:26:24;6.57;;;3.28;;
28483;SDS011;15704;48.834;8.736;2023-06-04T02:28:51;8.90;;;4.68;;
28483;SDS011;15704;48.834;8.736;2023-06-04T02:31:19;12.25;;;4.38;;
28483;SDS011;15704;48.834;8.736;2023-06-04T02:33:47;5.13;;;3.10;;
28483;SDS011;15704;48.834;8.736;2023-06-04T02:36:14;7.93;;;3.30;;
28483;SDS011;15704;48.834;8.736;2023-06-04T02:38:43;11.48;;;3.50;;
28483;SDS011;15704;48.834;8.736;2023-06-04T02:41:10;6.53;;;3.33;;
28483;SDS011;15704;48.834;8.736;2023-06-04T02:43:37;9.45;;;4.20;;
28483;SDS011;15704;48.834;8.736;2023-06-04T02:46:04;13.07;;;3.90;;
28483;SDS011;15704;48.834;8.736;2023-06-04T02:48:32;9.80;;;3.58;;
28483;SDS011;15704;48.834;8.736;2023-06-04T02:50:59;6.35;;;2.97;;
28483;SDS011;15704;48.834;8.736;2023-06-04T02:53:27;6.13;;;3.10;;
28483;SDS011;15704;48.834;8.736;2023-06-04T02:55:53;9.30;;;3.33;;
28483;SDS011;15704;48.834;8.736;2023-06-04T02:58:20;9.73;;;3.53;;
28483;SDS011;15704;48.834;8.736;2023-06-04T03:00:52;9.15;;;3.30;;
28483;SDS011;15704;48.834;8.736;2023-06-04T03:03:19;10.75;;;3.70;;
28483;SDS011;15704;48.834;8.736;2023-06-04T03:05:46;7.40;;;3.80;;
28483;SDS011;15704;48.834;8.736;2023-06-04T03:08:12;14.68;;;4.40;;
28483;SDS011;15704;48.834;8.736;2023-06-04T03:10:39;23.00;;;11.68;;
28483;SDS011;15704;48.834;8.736;2023-06-04T03:13:06;18.58;;;10.10;;
28483;SDS011;15704;48.834;8.736;2023-06-04T03:15:33;16.90;;;8.52;;
28483;SDS011;15704;48.834;8.736;2023-06-04T03:18:00;13.52;;;6.93;;
28483;SDS011;15704;48.834;8.736;2023-06-04T03:20:27;30.98;;;12.60;;
28483;SDS011;15704;48.834;8.736;2023-06-04T03:22:53;5.38;;;3.22;;
28483;SDS011;15704;48.834;8.736;2023-06-04T03:25:20;11.05;;;3.60;;
28483;SDS011;15704;48.834;8.736;2023-06-04T03:27:47;12.57;;;5.70;;
28483;SDS011;15704;48.834;8.736;2023-06-04T03:30:14;8.68;;;3.15;;
28483;SDS011;15704;48.834;8.736;2023-06-04T03:32:41;5.10;;;2.88;;
28483;SDS011;15704;48.834;8.736;2023-06-04T03:35:10;7.75;;;3.00;;
28483;SDS011;15704;48.834;8.736;2023-06-04T03:37:36;7.60;;;2.40;;
28483;SDS011;15704;48.834;8.736;2023-06-04T03:40:04;5.82;;;3.00;;
28483;SDS011;15704;48.834;8.736;2023-06-04T03:42:32;7.63;;;2.75;;
28483;SDS011;15704;48.834;8.736;2023-06-04T03:44:59;6.53;;;2.63;;
28483;SDS011;15704;48.834;8.736;2023-06-04T03:47:26;4.50;;;2.65;;
28483;SDS011;15704;48.834;8.736;2023-06-04T03:49:53;6.32;;;3.08;;
28483;SDS011;15704;48.834;8.736;2023-06-04T03:52:19;6.95;;;3.50;;
28483;SDS011;15704;48.834;8.736;2023-06-04T03:54:46;6.55;;;3.00;;
28483;SDS011;15704;48.834;8.736;2023-06-04T03:57:13;3.72;;;2.40;;
28483;SDS011;15704;48.834;8.736;2023-06-04T03:59:39;6.55;;;2.45;;
28483;SDS011;15704;48.834;8.736;2023-06-04T04:02:06;3.75;;;2.50;;
28483;SDS011;15704;48.834;8.736;2023-06-04T04:04:33;4.38;;;2.28;;
28483;SDS011;15704;48.834;8.736;2023-06-04T04:07:02;4.97;;;2.55;;
28483;SDS011;15704;48.834;8.736;2023-06-04T04:09:29;11.13;;;4.90;;
28483;SDS011;15704;48.834;8.736;2023-06-04T04:11:55;3.95;;;2.70;;
28483;SDS011;15704;48.834;8.736;2023-06-04T04:14:22;5.45;;;3.03;;
28483;SDS011;15704;48.834;8.736;2023-06-04T04:16:49;8.30;;;2.60;;
28483;SDS011;15704;48.834;8.736;2023-06-04T04:19:16;2.85;;;2.00;;
28483;SDS011;15704;48.834;8.736;2023-06-04T04:21:43;11.32;;;2.75;;
28483;SDS011;15704;48.834;8.736;2023-06-04T04:24:11;7.53;;;2.78;;
28483;SDS011;15704;48.834;8.736;2023-06-04T04:26:48;5.53;;;2.55;;
28483;SDS011;15704;48.834;8.736;2023-06-04T04:29:22;10.30;;;2.42;;
28483;SDS011;15704;48.834;8.736;2023-06-04T04:31:54;4.63;;;2.67;;
28483;SDS011;15704;48.834;8.736;2023-06-04T04:34:22;5.43;;;2.65;;
28483;SDS011;15704;48.834;8.736;2023-06-04T04:36:51;6.80;;;2.97;;
28483;SDS011;15704;48.834;8.736;2023-06-04T04:39:19;7.43;;;2.20;;
28483;SDS011;15704;48.834;8.736;2023-06-04T04:41:48;6.10;;;2.55;;
28483;SDS011;15704;48.834;8.736;2023-06-04T04:44:15;3.97;;;1.90;;
28483;SDS011;15704;48.834;8.736;2023-06-04T04:46:42;11.73;;;2.10;;
28483;SDS011;15704;48.834;8.736;2023-06-04T04:49:08;7.03;;;2.17;;
28483;SDS011;15704;48.834;8.736;2023-06-04T04:51:35;4.82;;;2.40;;
28483;SDS011;15704;48.834;8.736;2023-06-04T04:54:02;7.35;;;2.10;;
28483;SDS011;15704;48.834;8.736;2023-06-04T04:56:29;2.90;;;1.92;;
28483;SDS011;15704;48.834;8.736;2023-06-04T04:58:59;5.00;;;2.25;;
28483;SDS011;15704;48.834;8.736;2023-06-04T05:01:25;4.60;;;2.05;;
28483;SDS011;15704;48.834;8.736;2023-06-04T05:03:52;4.90;;;2.50;;
28483;SDS011;15704;48.834;8.736;2023-06-04T05:06:19;3.03;;;1.80;;
28483;SDS011;15704;48.834;8.736;2023-06-04T05:08:46;4.88;;;1.92;;
28483;SDS011;15704;48.834;8.736;2023-06-04T05:11:12;7.57;;;1.88;;
28483;SDS011;15704;48.834;8.736;2023-06-04T05:13:39;4.65;;;1.70;;
28483;SDS011;15704;48.834;8.736;2023-06-04T05:16:07;5.20;;;2.10;;
28483;SDS011;15704;48.834;8.736;2023-06-04T05:18:36;6.15;;;2.05;;
28483;SDS011;15704;48.834;8.736;2023-06-04T05:21:07;5.50;;;2.22;;
28483;SDS011;15704;48.834;8.736;2023-06-04T05:23:34;5.03;;;2.05;;
28483;SDS011;15704;48.834;8.736;2023-06-04T05:26:03;3.78;;;1.80;;
28483;SDS011;15704;48.834;8.736;2023-06-04T05:28:33;2.58;;;1.88;;
28483;SDS011;15704;48.834;8.736;2023-06-04T05:31:00;4.40;;;2.15;;
28483;SDS011;15704;48.834;8.736;2023-06-04T05:33:27;4.13;;;1.58;;
28483;SDS011;15704;48.834;8.736;2023-06-04T05:35:54;7.07;;;2.20;;
28483;SDS011;15704;48.834;8.736;2023-06-04T05:38:23;7.18;;;2.08;;
28483;SDS011;15704;48.834;8.736;2023-06-04T05:40:54;4.65;;;1.73;;
28483;SDS011;15704;48.834;8.736;2023-06-04T05:43:21;3.55;;;1.98;;
28483;SDS011;15704;48.834;8.736;2023-06-04T05:45:48;7.28;;;1.98;;
28483;SDS011;15704;48.834;8.736;2023-06-04T05:48:16;7.13;;;1.85;;
28483;SDS011;15704;48.834;8.736;2023-06-04T05:50:42;8.80;;;2.22;;
28483;SDS011;15704;48.834;8.736;2023-06-04T05:53:09;3.92;;;1.90;;
28483;SDS011;15704;48.834;8.736;2023-06-04T05:55:36;3.97;;;1.63;;
28483;SDS011;15704;48.834;8.736;2023-06-04T05:58:05;6.35;;;1.98;;
28483;SDS011;15704;48.834;8.736;2023-06-04T06:00:32;5.70;;;1.67;;
28483;SDS011;15704;48.834;8.736;2023-06-04T06:03:00;4.25;;;1.58;;
28483;SDS011;15704;48.834;8.736;2023-06-04T06:05:28;2.30;;;1.70;;
28483;SDS011;15704;48.834;8.736;2023-06-04T06:07:54;2.67;;;1.77;;
28483;SDS011;15704;48.834;8.736;2023-06-04T06:10:22;6.80;;;1.83;;
28483;SDS011;15704;48.834;8.736;2023-06-04T06:12:49;3.22;;;1.75;;
28483;SDS011;15704;48.834;8.736;2023-06-04T06:15:16;4.60;;;1.83;;
28483;SDS011;15704;48.834;8.736;2023-06-04T06:17:43;10.68;;;1.98;;
28483;SDS011;15704;48.834;8.736;2023-06-04T06:20:10;4.20;;;1.85;;
28483;SDS011;15704;48.834;8.736;2023-06-04T06:22:37;2.40;;;1.70;;
28483;SDS011;15704;48.834;8.736;2023-06-04T06:25:04;5.50;;;1.80;;
28483;SDS011;15704;48.834;8.736;2023-06-04T06:27:32;5.30;;;2.05;;
28483;SDS011;15704;48.834;8.736;2023-06-04T06:29:59;2.85;;;1.75;;
28483;SDS011;15704;48.834;8.736;2023-06-04T06:32:26;5.40;;;1.90;;
28483;SDS011;15704;48.834;8.736;2023-06-04T06:34:53;6.28;;;1.60;;
28483;SDS011;15704;48.834;8.736;2023-06-04T06:37:20;2.25;;;1.60;;
28483;SDS011;15704;48.834;8.736;2023-06-04T06:39:46;6.93;;;1.80;;
28483;SDS011;15704;48.834;8.736;2023-06-04T06:42:13;6.75;;;2.03;;
28483;SDS011;15704;48.834;8.736;2023-06-04T06:44:43;6.88;;;2.08;;
28483;SDS011;15704;48.834;8.736;2023-06-04T06:47:10;4.57;;;2.15;;
28483;SDS011;15704;48.834;8.736;2023-06-04T06:49:40;6.68;;;2.08;;
28483;SDS011;15704;48.834;8.736;2023-06-04T06:52:07;5.55;;;2.33;;
28483;SDS011;15704;48.834;8.736;2023-06-04T06:54:34;4.30;;;1.83;;
28483;SDS011;15704;48.834;8.736;2023-06-04T06:57:01;3.63;;;2.08;;
28483;SDS011;15704;48.834;8.736;2023-06-04T06:59:28;2.35;;;1.70;;
28483;SDS011;15704;48.834;8.736;2023-06-04T07:01:55;7.82;;;2.42;;
28483;SDS011;15704;48.834;8.736;2023-06-04T07:04:22;3.92;;;1.90;;
28483;SDS011;15704;48.834;8.736;2023-06-04T07:06:49;7.35;;;2.13;;
28483;SDS011;15704;48.834;8.736;2023-06-04T07:09:16;2.95;;;1.73;;
28483;SDS011;15704;48.834;8.736;2023-06-04T07:11:43;4.10;;;1.80;;
28483;SDS011;15704;48.834;8.736;2023-06-04T07:14:10;3.70;;;2.30;;
28483;SDS011;15704;48.834;8.736;2023-06-04T07:16:37;3.95;;;2.22;;
28483;SDS011;15704;48.834;8.736;2023-06-04T07:19:04;5.88;;;2.17;;
28483;SDS011;15704;48.834;8.736;2023-06-04T07:21:30;3.55;;;1.95;;
28483;SDS011;15704;48.834;8.736;2023-06-04T07:23:57;2.72;;;1.77;;
28483;SDS011;15704;48.834;8.736;2023-06-04T07:26:24;4.63;;;2.38;;
28483;SDS011;15704;48.834;8.736;2023-06-04T07:28:52;4.10;;;2.03;;
28483;SDS011;15704;48.834;8.736;2023-06-04T07:31:19;5.07;;;2.30;;
28483;SDS011;15704;48.834;8.736;2023-06-04T07:33:46;4.70;;;2.15;;
28483;SDS011;15704;48.834;8.736;2023-06-04T07:36:13;6.57;;;2.50;;
28483;SDS011;15704;48.834;8.736;2023-06-04T07:38:40;6.18;;;2.17;;
28483;SDS011;15704;48.834;8.736;2023-06-04T07:41:07;4.63;;;2.33;;
28483;SDS011;15704;48.834;8.736;2023-06-04T07:43:34;6.22;;;2.10;;
28483;SDS011;15704;48.834;8.736;2023-06-04T07:46:02;7.55;;;2.17;;
28483;SDS011;15704;48.834;8.736;2023-06-04T07:48:30;4.47;;;2.63;;
28483;SDS011;15704;48.834;8.736;2023-06-04T07:51:00;5.60;;;2.30;;
28483;SDS011;15704;48.834;8.736;2023-06-04T07:53:28;5.03;;;2.33;;
28483;SDS011;15704;48.834;8.736;2023-06-04T07:55:56;4.57;;;2.20;;
28483;SDS011;15704;48.834;8.736;2023-06-04T07:58:23;5.80;;;2.60;;
28483;SDS011;15704;48.834;8.736;2023-06-04T08:00:51;5.68;;;2.00;;
28483;SDS011;15704;48.834;8.736;2023-06-04T08:03:19;6.47;;;2.15;;
28483;SDS011;15704;48.834;8.736;2023-06-04T08:05:47;4.70;;;2.03;;
28483;SDS011;15704;48.834;8.736;2023-06-04T08:08:13;5.47;;;2.20;;
28483;SDS011;15704;48.834;8.736;2023-06-04T08:10:41;7.03;;;2.47;;
28483;SDS011;15704;48.834;8.736;2023-06-04T08:13:08;5.53;;;2.72;;
28483;SDS011;15704;48.834;8.736;2023-06-04T08:15:35;12.30;;;2.90;;
28483;SDS011;15704;48.834;8.736;2023-06-04T08:18:02;7.18;;;2.13;;
28483;SDS011;15704;48.834;8.736;2023-06-04T08:20:29;6.57;;;2.25;;
28483;SDS011;15704;48.834;8.736;2023-06-04T08:22:56;8.40;;;2.15;;
28483;SDS011;15704;48.834;8.736;2023-06-04T08:25:23;4.00;;;2.47;;
28483;SDS011;15704;48.834;8.736;2023-06-04T08:27:50;5.70;;;2.50;;
28483;SDS011;15704;48.834;8.736;2023-06-04T08:30:17;3.50;;;2.00;;
28483;SDS011;15704;48.834;8.736;2023-06-04T08:32:44;5.03;;;2.90;;
28483;SDS011;15704;48.834;8.736;2023-06-04T08:35:10;5.28;;;2.33;;
28483;SDS011;15704;48.834;8.736;2023-06-04T08:37:37;4.65;;;2.05;;
28483;SDS011;15704;48.834;8.736;2023-06-04T08:40:04;5.07;;;2.55;;
28483;SDS011;15704;48.834;8.736;2023-06-04T08:42:36;9.20;;;2.30;;
28483;SDS011;15704;48.834;8.736;2023-06-04T08:45:11;6.20;;;2.38;;
28483;SDS011;15704;48.834;8.736;2023-06-04T08:47:40;7.43;;;2.00;;
28483;SDS011;15704;48.834;8.736;2023-06-04T08:50:11;8.38;;;2.08;;
28483;SDS011;15704;48.834;8.736;2023-06-04T08:52:39;6.90;;;2.08;;
28483;SDS011;15704;48.834;8.736;2023-06-04T08:55:08;5.28;;;2.28;;
28483;SDS011;15704;48.834;8.736;2023-06-04T08:57:36;5.18;;;2.28;;
28483;SDS011;15704;48.834;8.736;2023-06-04T09:00:05;7.93;;;2.25;;
28483;SDS011;15704;48.834;8.736;2023-06-04T09:02:37;7.47;;;2.42;;
28483;SDS011;15704;48.834;8.736;2023-06-04T09:05:04;4.55;;;2.08;;
28483;SDS011;15704;48.834;8.736;2023-06-04T09:07:35;4.78;;;1.95;;
28483;SDS011;15704;48.834;8.736;2023-06-04T09:10:04;6.10;;;1.67;;
28483;SDS011;15704;48.834;8.736;2023-06-04T09:12:41;4.85;;;2.28;;
28483;SDS011;15704;48.834;8.736;2023-06-04T09:15:10;8.20;;;3.28;;
28483;SDS011;15704;48.834;8.736;2023-06-04T09:17:37;4.18;;;2.20;;
28483;SDS011;15704;48.834;8.736;2023-06-04T09:20:04;5.72;;;2.22;;
28483;SDS011;15704;48.834;8.736;2023-06-04T09:22:35;5.68;;;2.17;;
28483;SDS011;15704;48.834;8.736;2023-06-04T09:25:03;7.85;;;2.20;;
28483;SDS011;15704;48.834;8.736;2023-06-04T09:27:40;5.47;;;2.30;;
28483;SDS011;15704;48.834;8.736;2023-06-04T09:30:07;4.47;;;1.83;;
28483;SDS011;15704;48.834;8.736;2023-06-04T09:32:36;4.40;;;2.33;;
28483;SDS011;15704;48.834;8.736;2023-06-04T09:37:38;5.07;;;1.95;;
28483;SDS011;15704;48.834;8.736;2023-06-04T09:40:06;5.90;;;2.03;;
28483;SDS011;15704;48.834;8.736;2023-06-04T09:42:46;4.32;;;1.98;;
28483;SDS011;15704;48.834;8.736;2023-06-04T09:45:28;5.25;;;2.30;;
28483;SDS011;15704;48.834;8.736;2023-06-04T09:47:55;4.45;;;2.17;;
28483;SDS011;15704;48.834;8.736;2023-06-04T09:50:40;4.25;;;2.20;;
28483;SDS011;15704;48.834;8.736;2023-06-04T09:55:42;7.72;;;2.42;;
28483;SDS011;15704;48.834;8.736;2023-06-04T09:58:10;7.57;;;2.28;;
28483;SDS011;15704;48.834;8.736;2023-06-04T10:00:38;2.78;;;1.90;;
28483;SDS011;15704;48.834;8.736;2023-06-04T10:03:06;4.22;;;2.53;;
28483;SDS011;15704;48.834;8.736;2023-06-04T10:05:38;5.18;;;2.60;;
28483;SDS011;15704;48.834;8.736;2023-06-04T10:08:05;9.57;;;2.05;;
28483;SDS011;15704;48.834;8.736;2023-06-04T10:10:33;8.52;;;2.20;;
28483;SDS011;15704;48.834;8.736;2023-06-04T10:13:05;14.82;;;2.08;;
28483;SDS011;15704;48.834;8.736;2023-06-04T10:15:36;10.55;;;2.38;;
28483;SDS011;15704;48.834;8.736;2023-06-04T10:18:03;16.67;;;2.38;;
28483;SDS011;15704;48.834;8.736;2023-06-04T10:20:32;7.80;;;2.30;;
28483;SDS011;15704;48.834;8.736;2023-06-04T10:23:00;4.72;;;1.90;;
28483;SDS011;15704;48.834;8.736;2023-06-04T10:25:28;3.92;;;2.00;;
28483;SDS011;15704;48.834;8.736;2023-06-04T10:27:55;5.47;;;2.10;;
28483;SDS011;15704;48.834;8.736;2023-06-04T10:30:22;5.43;;;2.42;;
28483;SDS011;15704;48.834;8.736;2023-06-04T10:32:49;3.45;;;2.10;;
28483;SDS011;15704;48.834;8.736;2023-06-04T10:35:16;5.85;;;2.10;;
28483;SDS011;15704;48.834;8.736;2023-06-04T10:37:43;3.65;;;2.22;;
28483;SDS011;15704;48.834;8.736;2023-06-04T10:40:11;7.43;;;2.08;;
28483;SDS011;15704;48.834;8.736;2023-06-04T10:42:42;4.05;;;2.00;;
28483;SDS011;15704;48.834;8.736;2023-06-04T10:45:09;3.28;;;2.03;;
28483;SDS011;15704;48.834;8.736;2023-06-04T10:47:37;5.03;;;2.45;;
28483;SDS011;15704;48.834;8.736;2023-06-04T10:50:08;3.42;;;2.15;;
28483;SDS011;15704;48.834;8.736;2023-06-04T10:52:52;9.05;;;2.83;;
28483;SDS011;15704;48.834;8.736;2023-06-04T10:55:19;7.65;;;2.95;;
28483;SDS011;15704;48.834;8.736;2023-06-04T10:57:56;3.15;;;2.28;;
28483;SDS011;15704;48.834;8.736;2023-06-04T11:00:34;6.88;;;2.88;;
28483;SDS011;15704;48.834;8.736;2023-06-04T11:03:05;8.55;;;2.35;;
28483;SDS011;15704;48.834;8.736;2023-06-04T11:08:12;7.40;;;2.83;;
28483;SDS011;15704;48.834;8.736;2023-06-04T11:10:41;4.93;;;2.40;;
28483;SDS011;15704;48.834;8.736;2023-06-04T11:13:09;7.35;;;2.50;;
28483;SDS011;15704;48.834;8.736;2023-06-04T11:18:08;3.80;;;2.47;;
28483;SDS011;15704;48.834;8.736;2023-06-04T11:20:39;5.72;;;3.00;;
28483;SDS011;15704;48.834;8.736;2023-06-04T11:23:06;9.52;;;2.58;;
28483;SDS011;15704;48.834;8.736;2023-06-04T11:25:33;6.30;;;2.40;;
28483;SDS011;15704;48.834;8.736;2023-06-04T11:28:00;3.40;;;2.40;;
28483;SDS011;15704;48.834;8.736;2023-06-04T11:30:27;7.97;;;2.50;;
28483;SDS011;15704;48.834;8.736;2023-06-04T11:33:04;12.00;;;2.85;;
28483;SDS011;15704;48.834;8.736;2023-06-04T11:35:39;3.13;;;2.10;;
28483;SDS011;15704;48.834;8.736;2023-06-04T11:38:08;4.72;;;2.63;;
28483;SDS011;15704;48.834;8.736;2023-06-04T11:40:35;8.43;;;2.60;;
28483;SDS011;15704;48.834;8.736;2023-06-04T11:43:02;6.63;;;3.15;;
28483;SDS011;15704;48.834;8.736;2023-06-04T11:45:29;3.97;;;2.20;;
28483;SDS011;15704;48.834;8.736;2023-06-04T11:47:57;4.60;;;2.22;;
28483;SDS011;15704;48.834;8.736;2023-06-04T11:50:27;6.63;;;2.58;;
28483;SDS011;15704;48.834;8.736;2023-06-04T11:52:55;7.18;;;2.38;;
28483;SDS011;15704;48.834;8.736;2023-06-04T11:55:22;7.45;;;2.40;;
28483;SDS011;15704;48.834;8.736;2023-06-04T11:57:49;7.70;;;2.30;;
28483;SDS011;15704;48.834;8.736;2023-06-04T12:00:17;4.72;;;2.22;;
28483;SDS011;15704;48.834;8.736;2023-06-04T12:02:54;5.95;;;2.38;;
28483;SDS011;15704;48.834;8.736;2023-06-04T12:05:23;5.75;;;2.92;;
28483;SDS011;15704;48.834;8.736;2023-06-04T12:08:07;10.07;;;2.95;;
28483;SDS011;15704;48.834;8.736;2023-06-04T12:10:36;4.80;;;2.70;;
28483;SDS011;15704;48.834;8.736;2023-06-04T12:13:07;4.53;;;2.25;;
28483;SDS011;15704;48.834;8.736;2023-06-04T12:15:35;4.03;;;2.53;;
28483;SDS011;15704;48.834;8.736;2023-06-04T12:18:02;6.63;;;2.20;;
28483;SDS011;15704;48.834;8.736;2023-06-04T12:20:34;10.27;;;2.85;;
28483;SDS011;15704;48.834;8.736;2023-06-04T12:23:05;6.93;;;3.63;;
28483;SDS011;15704;48.834;8.736;2023-06-04T12:25:34;7.35;;;2.63;;
28483;SDS011;15704;48.834;8.736;2023-06-04T12:28:03;6.88;;;3.17;;
28483;SDS011;15704;48.834;8.736;2023-06-04T12:30:40;6.75;;;2.60;;
28483;SDS011;15704;48.834;8.736;2023-06-04T12:33:07;6.80;;;3.20;;
28483;SDS011;15704;48.834;8.736;2023-06-04T12:35:36;4.30;;;2.65;;
28483;SDS011;15704;48.834;8.736;2023-06-04T12:38:05;11.75;;;3.03;;
28483;SDS011;15704;48.834;8.736;2023-06-04T12:40:35;7.03;;;2.40;;
28483;SDS011;15704;48.834;8.736;2023-06-04T12:43:02;5.05;;;2.83;;
28483;SDS011;15704;48.834;8.736;2023-06-04T12:45:29;5.32;;;2.17;;
28483;SDS011;15704;48.834;8.736;2023-06-04T12:47:56;4.00;;;2.72;;
28483;SDS011;15704;48.834;8.736;2023-06-04T12:50:22;7.88;;;2.63;;
28483;SDS011;15704;48.834;8.736;2023-06-04T12:52:49;4.82;;;2.63;;
28483;SDS011;15704;48.834;8.736;2023-06-04T12:55:16;9.20;;;2.85;;
28483;SDS011;15704;48.834;8.736;2023-06-04T12:57:43;5.15;;;2.60;;
28483;SDS011;15704;48.834;8.736;2023-06-04T13:00:12;7.13;;;2.72;;
28483;SDS011;15704;48.834;8.736;2023-06-04T13:02:42;7.88;;;2.63;;
28483;SDS011;15704;48.834;8.736;2023-06-04T13:05:09;5.53;;;2.65;;
28483;SDS011;15704;48.834;8.736;2023-06-04T13:07:36;4.75;;;2.28;;
28483;SDS011;15704;48.834;8.736;2023-06-04T13:10:03;16.98;;;3.65;;
28483;SDS011;15704;48.834;8.736;2023-06-04T13:12:30;3.85;;;2.58;;
28483;SDS011;15704;48.834;8.736;2023-06-04T13:14:57;4.85;;;2.50;;
28483;SDS011;15704;48.834;8.736;2023-06-04T13:17:24;7.43;;;2.83;;
28483;SDS011;15704;48.834;8.736;2023-06-04T13:19:51;6.05;;;2.95;;
28483;SDS011;15704;48.834;8.736;2023-06-04T13:22:18;5.03;;;2.47;;
28483;SDS011;15704;48.834;8.736;2023-06-04T13:24:45;19.20;;;3.00;;
28483;SDS011;15704;48.834;8.736;2023-06-04T13:27:12;3.78;;;2.42;;
28483;SDS011;15704;48.834;8.736;2023-06-04T13:29:38;5.13;;;2.63;;
28483;SDS011;15704;48.834;8.736;2023-06-04T13:32:08;8.73;;;2.78;;
28483;SDS011;15704;48.834;8.736;2023-06-04T13:34:36;7.70;;;2.40;;
28483;SDS011;15704;48.834;8.736;2023-06-04T13:37:03;4.88;;;2.67;;
28483;SDS011;15704;48.834;8.736;2023-06-04T13:39:32;4.25;;;2.40;;
28483;SDS011;15704;48.834;8.736;2023-06-04T13:41:59;4.38;;;2.75;;
28483;SDS011;15704;48.834;8.736;2023-06-04T13:44:25;7.05;;;2.90;;
28483;SDS011;15704;48.834;8.736;2023-06-04T13:46:54;4.88;;;2.55;;
28483;SDS011;15704;48.834;8.736;2023-06-04T13:49:21;7.35;;;2.55;;
28483;SDS011;15704;48.834;8.736;2023-06-04T13:51:48;5.32;;;3.08;;
28483;SDS011;15704;48.834;8.736;2023-06-04T13:54:14;4.60;;;2.53;;
28483;SDS011;15704;48.834;8.736;2023-06-04T13:56:41;9.43;;;2.67;;
28483;SDS011;15704;48.834;8.736;2023-06-04T13:59:10;6.00;;;2.80;;
28483;SDS011;15704;48.834;8.736;2023-06-04T14:01:36;4.60;;;2.60;;
28483;SDS011;15704;48.834;8.736;2023-06-04T14:04:03;4.50;;;2.72;;
28483;SDS011;15704;48.834;8.736;2023-06-04T14:06:32;4.43;;;2.10;;
28483;SDS011;15704;48.834;8.736;2023-06-04T14:09:02;4.95;;;2.30;;
28483;SDS011;15704;48.834;8.736;2023-06-04T14:11:29;5.15;;;2.15;;
28483;SDS011;15704;48.834;8.736;2023-06-04T14:13:56;10.52;;;2.25;;
28483;SDS011;15704;48.834;8.736;2023-06-04T14:16:22;3.28;;;2.17;;
28483;SDS011;15704;48.834;8.736;2023-06-04T14:18:49;4.82;;;2.50;;
28483;SDS011;15704;48.834;8.736;2023-06-04T14:21:16;4.18;;;2.38;;
28483;SDS011;15704;48.834;8.736;2023-06-04T14:23:43;7.78;;;2.63;;
28483;SDS011;15704;48.834;8.736;2023-06-04T14:26:10;6.53;;;2.00;;
28483;SDS011;15704;48.834;8.736;2023-06-04T14:28:38;4.97;;;1.98;;
28483;SDS011;15704;48.834;8.736;2023-06-04T14:31:05;4.00;;;2.10;;
28483;SDS011;15704;48.834;8.736;2023-06-04T14:33:32;3.47;;;2.38;;
28483;SDS011;15704;48.834;8.736;2023-06-04T14:36:01;9.82;;;2.97;;
28483;SDS011;15704;48.834;8.736;2023-06-04T14:38:28;5.45;;;3.17;;
28483;SDS011;15704;48.834;8.736;2023-06-04T14:40:55;6.00;;;2.47;;
28483;SDS011;15704;48.834;8.736;2023-06-04T14:43:22;6.32;;;2.35;;
28483;SDS011;15704;48.834;8.736;2023-06-04T14:45:50;4.60;;;2.20;;
28483;SDS011;15704;48.834;8.736;2023-06-04T14:48:17;4.88;;;2.80;;
28483;SDS011;15704;48.834;8.736;2023-06-04T14:50:43;6.00;;;2.47;;
28483;SDS011;15704;48.834;8.736;2023-06-04T14:53:11;4.72;;;2.35;;
28483;SDS011;15704;48.834;8.736;2023-06-04T14:55:38;5.20;;;2.70;;
28483;SDS011;15704;48.834;8.736;2023-06-04T14:58:05;5.22;;;2.35;;
28483;SDS011;15704;48.834;8.736;2023-06-04T15:00:32;6.45;;;2.65;;
28483;SDS011;15704;48.834;8.736;2023-06-04T15:02:59;4.32;;;2.63;;
28483;SDS011;15704;48.834;8.736;2023-06-04T15:05:29;5.85;;;2.67;;
28483;SDS011;15704;48.834;8.736;2023-06-04T15:07:56;4.20;;;2.85;;